Time;durP1;ratioP1;P1;durP2;ratioP2;P2;SDS_P1;SDS_P2;PMS_P1;PMS_P2;Temp;Humidity;BMP_temperature;BMP_pressure;BME280_temperature;BME280_humidity;BME280_pressure;Samples;Min_cycle;Max_cycle;Signal;HPM_P1;HPM_P2
2022/08/22 00:01:51;;;;;;;3.43;1.50;;;24.10;73.10;;;;;;5117035;27;20653;-67
2022/08/22 00:04:40;;;;;;;2.37;1.40;;;24.10;73.50;;;;;;5105166;27;20267;-67
2022/08/22 00:07:25;;;;;;;4.00;1.50;;;24.10;74.10;;;;;;5096581;27;20196;-67
2022/08/22 00:10:13;;;;;;;1.77;1.30;;;24.00;74.60;;;;;;5105941;27;20208;-67
2022/08/22 00:13:02;;;;;;;1.77;1.30;;;24.10;74.90;;;;;;5104216;27;20219;-67
2022/08/22 00:15:47;;;;;;;2.77;0.97;;;24.10;75.00;;;;;;5117121;27;20208;-67
2022/08/22 00:18:31;;;;;;;1.23;1.13;;;24.10;75.10;;;;;;5114976;27;20243;-67
2022/08/22 00:21:28;;;;;;;1.30;1.20;;;24.10;75.10;;;;;;5111659;27;20200;-67
2022/08/22 00:24:18;;;;;;;2.80;1.20;;;24.10;75.10;;;;;;5107987;27;21061;-67
2022/08/22 00:27:06;;;;;;;1.43;1.30;;;24.20;75.00;;;;;;5099527;27;20283;-68
2022/08/22 00:29:47;;;;;;;3.53;1.50;;;24.20;74.90;;;;;;5110506;27;20259;-67
2022/08/22 00:32:39;;;;;;;2.87;2.57;;;24.20;75.00;;;;;;5111491;27;20235;-67
2022/08/22 00:35:38;;;;;;;1.73;1.40;;;24.20;75.20;;;;;;5097056;27;20205;-67
2022/08/22 00:38:21;;;;;;;2.60;1.50;;;24.20;75.30;;;;;;5112835;27;20696;-67
2022/08/22 00:41:14;;;;;;;1.87;1.50;;;24.20;75.40;;;;;;5126525;27;20203;-67
2022/08/22 00:43:59;;;;;;;1.77;1.20;;;24.20;75.60;;;;;;5115751;27;20208;-67
2022/08/22 00:46:45;;;;;;;2.63;1.53;;;24.20;75.50;;;;;;5113370;27;20200;-67
2022/08/22 00:49:36;;;;;;;1.70;1.30;;;24.20;75.60;;;;;;5105845;28;20214;-67
2022/08/22 00:52:21;;;;;;;1.57;1.47;;;24.10;75.60;;;;;;5113733;27;20196;-67
2022/08/22 00:55:12;;;;;;;2.10;1.33;;;24.20;75.70;;;;;;5091718;27;20200;-67
2022/08/22 00:57:57;;;;;;;2.47;1.40;;;24.10;75.80;;;;;;5090114;27;20223;-67
2022/08/22 01:00:28;;;;;;;3.17;1.37;;;24.10;76.00;;;;;;5106728;27;20632;-67
2022/08/22 01:03:25;;;;;;;3.70;1.73;;;24.10;76.20;;;;;;5120669;27;20218;-67
2022/08/22 01:06:07;;;;;;;1.57;1.40;;;24.10;76.30;;;;;;5099032;27;20282;-67
2022/08/22 01:08:37;;;;;;;2.47;1.57;;;24.10;76.30;;;;;;5111136;27;20707;-67
2022/08/22 01:11:10;;;;;;;1.20;1.10;;;24.00;76.30;;;;;;5117909;27;20196;-67
2022/08/22 01:13:56;;;;;;;3.27;1.80;;;24.00;76.30;;;;;;5120083;27;20197;-67
2022/08/22 01:16:54;;;;;;;1.40;1.20;;;24.00;76.40;;;;;;5114638;27;20215;-67
2022/08/22 01:19:59;;;;;;;2.07;1.93;;;24.00;76.50;;;;;;5078593;27;20232;-67
2022/08/22 01:23:07;;;;;;;1.40;1.30;;;23.90;76.60;;;;;;5095328;27;20192;-67
2022/08/22 01:25:58;;;;;;;2.90;1.60;;;23.90;76.90;;;;;;5108174;27;20201;-67
2022/08/22 01:28:55;;;;;;;1.70;1.60;;;23.80;77.10;;;;;;5113571;27;20208;-67
2022/08/22 01:32:06;;;;;;;1.57;1.47;;;23.70;77.30;;;;;;5100162;27;21416;-68
2022/08/22 01:35:23;;;;;;;2.40;2.00;;;23.70;77.50;;;;;;5080755;27;20209;-67
2022/08/22 01:38:24;;;;;;;2.23;1.70;;;23.60;77.70;;;;;;5011081;28;20230;-67
2022/08/22 01:41:06;;;;;;;4.67;2.03;;;23.60;78.00;;;;;;5111773;27;20660;-67
2022/08/22 01:44:25;;;;;;;2.03;1.83;;;23.50;78.10;;;;;;5098730;27;20641;-67
2022/08/22 01:47:18;;;;;;;5.70;2.30;;;23.50;78.40;;;;;;5104561;27;20203;-67
2022/08/22 01:50:28;;;;;;;1.60;1.50;;;23.50;78.40;;;;;;5064753;27;20192;-67
2022/08/22 01:53:05;;;;;;;3.13;2.10;;;23.40;78.80;;;;;;5066462;27;20223;-67
2022/08/22 01:55:44;;;;;;;1.90;1.73;;;23.40;79.00;;;;;;5088051;28;20204;-67
2022/08/22 01:58:22;;;;;;;4.23;1.77;;;23.40;79.10;;;;;;5080429;27;20203;-67
2022/08/22 02:01:10;;;;;;;2.67;1.83;;;23.30;79.30;;;;;;5110470;27;20629;-67
2022/08/22 02:04:02;;;;;;;2.93;1.67;;;23.30;79.50;;;;;;5114543;27;20215;-67
2022/08/22 02:06:55;;;;;;;5.03;2.00;;;23.30;79.70;;;;;;5111491;27;20193;-67
2022/08/22 02:09:37;;;;;;;2.77;2.13;;;23.30;79.80;;;;;;5108518;27;20212;-67
2022/08/22 02:12:31;;;;;;;2.80;2.17;;;23.20;80.00;;;;;;5111873;27;20622;-67
2022/08/22 02:15:01;;;;;;;2.17;1.97;;;23.20;80.10;;;;;;5112848;27;20232;-67
2022/08/22 02:17:33;;;;;;;2.53;1.83;;;23.10;80.10;;;;;;5110972;28;20236;-67
2022/08/22 02:20:16;;;;;;;1.90;1.73;;;23.10;80.40;;;;;;5115449;27;20544;-67
2022/08/22 02:22:59;;;;;;;2.07;1.87;;;23.10;80.70;;;;;;5099140;27;20204;-67
2022/08/22 02:25:33;;;;;;;1.93;1.83;;;23.10;80.90;;;;;;5119222;27;20229;-67
2022/08/22 02:28:18;;;;;;;2.77;1.53;;;23.00;81.00;;;;;;5120490;27;20643;-67
2022/08/22 02:30:53;;;;;;;1.93;1.83;;;23.00;81.20;;;;;;5104041;28;20196;-67
2022/08/22 02:33:31;;;;;;;3.90;1.80;;;23.00;81.40;;;;;;5120746;28;20543;-67
2022/08/22 02:36:35;;;;;;;2.70;1.90;;;23.00;81.50;;;;;;5072387;28;20200;-67
2022/08/22 02:39:21;;;;;;;1.77;1.53;;;23.00;81.70;;;;;;5085278;28;20218;-67
2022/08/22 02:42:31;;;;;;;2.13;1.73;;;23.00;82.00;;;;;;5116075;28;20215;-67
2022/08/22 02:45:14;;;;;;;1.40;1.30;;;22.90;82.10;;;;;;5088872;28;20250;-67
2022/08/22 02:48:09;;;;;;;2.60;1.60;;;22.90;82.10;;;;;;5117413;28;20200;-67
2022/08/22 02:51:01;;;;;;;2.13;1.70;;;22.90;82.40;;;;;;5115742;28;20196;-67
2022/08/22 02:53:55;;;;;;;3.47;1.67;;;22.80;82.50;;;;;;5112281;28;20203;-67
2022/08/22 02:56:33;;;;;;;2.50;1.30;;;22.80;82.60;;;;;;5062088;28;20220;-67
2022/08/22 02:59:31;;;;;;;2.87;1.63;;;22.80;82.70;;;;;;5103102;28;20634;-67
2022/08/22 03:02:24;;;;;;;3.33;1.90;;;22.70;82.80;;;;;;5102652;28;20200;-68
2022/08/22 03:04:55;;;;;;;12.23;2.60;;;22.70;82.90;;;;;;5104369;28;20224;-67
2022/08/22 03:07:37;;;;;;;1.87;1.73;;;22.60;82.70;;;;;;5107344;28;20279;-68
2022/08/22 03:10:24;;;;;;;1.83;1.70;;;22.60;82.70;;;;;;5112638;28;20204;-67
2022/08/22 03:13:02;;;;;;;3.60;2.00;;;22.60;82.90;;;;;;5111920;28;20215;-67
2022/08/22 03:15:48;;;;;;;2.40;2.03;;;22.50;83.00;;;;;;5092237;28;20201;-67
2022/08/22 03:18:20;;;;;;;4.70;2.47;;;22.50;83.40;;;;;;5120363;27;20250;-67
2022/08/22 03:20:57;;;;;;;1.93;1.73;;;22.40;83.70;;;;;;5118475;27;20200;-67
2022/08/22 03:23:35;;;;;;;2.73;2.53;;;22.40;84.00;;;;;;5108566;27;20577;-67
2022/08/22 03:26:25;;;;;;;3.13;2.10;;;22.40;84.20;;;;;;5099137;27;20211;-67
2022/08/22 03:29:08;;;;;;;3.67;2.20;;;22.40;84.50;;;;;;5095097;28;20583;-67
2022/08/22 03:31:36;;;;;;;3.53;2.60;;;22.30;84.70;;;;;;5115971;27;20618;-67
2022/08/22 03:34:21;;;;;;;3.43;2.30;;;22.30;84.80;;;;;;5103248;27;20215;-67
2022/08/22 03:37:13;;;;;;;5.70;2.10;;;22.30;84.90;;;;;;5121208;27;20200;-67
2022/08/22 03:39:55;;;;;;;3.50;2.70;;;22.30;85.00;;;;;;5125232;27;20208;-67
2022/08/22 03:42:34;;;;;;;3.47;2.80;;;22.20;85.00;;;;;;5118970;27;20238;-68
2022/08/22 03:45:22;;;;;;;4.40;2.77;;;22.20;85.10;;;;;;5096713;28;20672;-67
2022/08/22 03:48:26;;;;;;;2.83;2.57;;;22.20;84.80;;;;;;5108467;27;20207;-67
2022/08/22 03:51:05;;;;;;;2.43;2.23;;;22.10;84.60;;;;;;5102935;27;20558;-67
2022/08/22 03:54:11;;;;;;;3.67;3.27;;;22.10;84.60;;;;;;5099661;27;20213;-67
2022/08/22 03:57:06;;;;;;;3.83;2.70;;;22.00;85.30;;;;;;5106276;27;20204;-67
2022/08/22 04:00:05;;;;;;;3.50;2.63;;;22.00;85.60;;;;;;5115980;27;20610;-67
2022/08/22 04:02:58;;;;;;;4.90;2.77;;;22.00;85.70;;;;;;5113543;27;20211;-67
2022/08/22 04:05:55;;;;;;;3.27;2.83;;;22.00;85.60;;;;;;5083640;28;20232;-67
2022/08/22 04:09:01;;;;;;;2.90;2.70;;;21.90;85.70;;;;;;5088234;28;20634;-67
2022/08/22 04:12:09;;;;;;;4.27;2.60;;;21.90;85.60;;;;;;5103525;27;20302;-67
2022/08/22 04:15:21;;;;;;;5.50;3.20;;;21.80;85.60;;;;;;5098556;27;20809;-67
2022/08/22 04:18:14;;;;;;;3.20;2.83;;;21.80;85.80;;;;;;5072317;27;20273;-67
2022/08/22 04:21:06;;;;;;;3.10;2.80;;;21.80;85.90;;;;;;5119382;27;20667;-67
2022/08/22 04:23:54;;;;;;;4.17;3.50;;;21.70;85.90;;;;;;5110397;27;20201;-67
2022/08/22 04:26:54;;;;;;;3.73;3.40;;;21.70;86.10;;;;;;5117292;27;20207;-67
2022/08/22 04:29:57;;;;;;;3.70;3.40;;;21.70;86.40;;;;;;5074312;27;20652;-67
2022/08/22 04:32:56;;;;;;;4.00;3.07;;;21.70;86.60;;;;;;5091360;27;20207;-67
2022/08/22 04:35:38;;;;;;;3.67;3.37;;;21.60;86.80;;;;;;5084507;27;20253;-67
2022/08/22 04:38:26;;;;;;;4.10;3.70;;;21.60;86.90;;;;;;5118799;27;20586;-67
2022/08/22 04:41:06;;;;;;;5.03;3.67;;;21.70;87.40;;;;;;5119710;27;20211;-67
2022/08/22 04:43:49;;;;;;;4.70;3.20;;;21.70;87.50;;;;;;5122305;27;20215;-67
2022/08/22 04:46:35;;;;;;;4.83;3.20;;;21.70;87.70;;;;;;5114720;27;20207;-67
2022/08/22 04:49:16;;;;;;;6.17;3.57;;;21.80;88.00;;;;;;5110747;27;20202;-67
2022/08/22 04:52:26;;;;;;;4.30;3.53;;;21.80;88.10;;;;;;5107717;27;20200;-67
2022/08/22 04:55:17;;;;;;;7.17;3.53;;;21.80;88.20;;;;;;4979804;28;20216;-67
2022/08/22 04:57:54;;;;;;;8.03;3.80;;;21.90;88.20;;;;;;5112907;27;20508;-67
2022/08/22 05:00:22;;;;;;;4.60;3.77;;;21.90;88.10;;;;;;5112925;27;20207;-67
2022/08/22 05:02:55;;;;;;;6.83;3.93;;;22.00;88.00;;;;;;5125073;27;20207;-67
2022/08/22 05:05:34;;;;;;;3.60;3.30;;;22.00;88.00;;;;;;5114233;27;20656;-67
2022/08/22 05:08:05;;;;;;;4.77;3.67;;;22.10;88.10;;;;;;5115885;27;20196;-67
2022/08/22 05:10:45;;;;;;;6.07;3.30;;;22.10;88.00;;;;;;5105978;28;20585;-67
2022/08/22 05:13:21;;;;;;;4.70;4.20;;;22.10;88.00;;;;;;5121608;27;20192;-67
2022/08/22 05:15:53;;;;;;;3.53;3.20;;;22.20;88.10;;;;;;5106438;27;20633;-67
2022/08/22 05:18:28;;;;;;;5.93;3.10;;;22.30;88.20;;;;;;5113048;27;20232;-67
2022/08/22 05:21:00;;;;;;;4.83;3.63;;;22.40;88.30;;;;;;5118039;27;20223;-67
2022/08/22 05:23:55;;;;;;;7.70;3.40;;;22.40;88.20;;;;;;5105395;27;20200;-67
2022/08/22 05:26:24;;;;;;;4.00;3.53;;;22.50;88.30;;;;;;5103411;27;20220;-67
2022/08/22 05:29:02;;;;;;;10.20;3.67;;;22.60;88.20;;;;;;5107343;27;20204;-67
2022/08/22 05:31:33;;;;;;;4.20;3.23;;;22.70;88.20;;;;;;5108947;27;20210;-67
2022/08/22 05:34:13;;;;;;;3.60;3.23;;;22.80;88.00;;;;;;5106196;27;20201;-68
2022/08/22 05:36:50;;;;;;;3.90;3.47;;;22.90;87.80;;;;;;5105281;27;20211;-67
2022/08/22 05:39:21;;;;;;;5.50;3.70;;;23.00;87.80;;;;;;5082357;27;20212;-67
2022/08/22 05:41:54;;;;;;;4.50;3.60;;;23.10;87.60;;;;;;5102871;27;20188;-67
2022/08/22 05:44:26;;;;;;;3.40;3.10;;;23.20;87.40;;;;;;5072092;28;20232;-67
2022/08/22 05:47:17;;;;;;;5.93;3.30;;;23.20;87.20;;;;;;5122266;27;20188;-67
2022/08/22 05:50:00;;;;;;;5.70;3.10;;;23.30;87.80;;;;;;5122828;27;20197;-67
2022/08/22 05:52:36;;;;;;;5.03;3.40;;;23.40;87.10;;;;;;5114957;27;20279;-67
2022/08/22 05:55:26;;;;;;;4.13;3.73;;;23.50;87.00;;;;;;5104935;27;20193;-67
2022/08/22 05:58:18;;;;;;;4.73;4.33;;;23.50;86.90;;;;;;5114501;27;20511;-67
2022/08/22 06:00:57;;;;;;;6.93;3.70;;;23.60;86.70;;;;;;5086459;27;20216;-67
2022/08/22 06:03:44;;;;;;;4.50;3.80;;;23.70;86.70;;;;;;5094128;27;20201;-67
2022/08/22 06:06:16;;;;;;;11.43;3.83;;;23.70;86.40;;;;;;5110231;27;20231;-67
2022/08/22 06:08:56;;;;;;;4.40;3.60;;;23.80;86.00;;;;;;5099075;27;20203;-67
2022/08/22 06:11:42;;;;;;;6.07;4.17;;;23.90;85.60;;;;;;5116523;27;20197;-67
2022/08/22 06:14:46;;;;;;;4.80;3.83;;;23.90;85.40;;;;;;5120797;27;20562;-67
2022/08/22 06:17:23;;;;;;;4.00;3.70;;;24.00;85.50;;;;;;5120206;27;20236;-67
2022/08/22 06:19:52;;;;;;;9.10;4.27;;;24.10;85.20;;;;;;5116082;27;20206;-67
2022/08/22 06:22:27;;;;;;;4.80;3.23;;;24.30;84.90;;;;;;5099833;28;20203;-67
2022/08/22 06:25:01;;;;;;;5.03;3.87;;;24.50;84.20;;;;;;5097129;28;20225;-68
2022/08/22 06:27:29;;;;;;;8.37;3.97;;;24.70;83.50;;;;;;5117163;27;20196;-67
2022/08/22 06:30:00;;;;;;;7.50;3.90;;;24.90;82.80;;;;;;5099181;28;20207;-67
2022/08/22 06:32:32;;;;;;;4.57;3.63;;;25.10;82.20;;;;;;5118531;28;20294;-67
2022/08/22 06:38:56;;;;;;;7.70;4.00;;;25.40;80.30;;;;;;5099677;28;20211;-67
2022/08/22 06:41:29;;;;;;;4.23;3.83;;;25.60;79.00;;;;;;5068101;28;20201;-67
2022/08/22 06:43:57;;;;;;;6.10;4.23;;;25.60;78.30;;;;;;5116469;28;20285;-68
2022/08/22 06:46:28;;;;;;;4.20;3.80;;;25.70;77.80;;;;;;5119700;28;20223;-68
2022/08/22 06:48:59;;;;;;;4.20;3.80;;;25.90;77.30;;;;;;5122799;28;20195;-68
2022/08/22 06:51:28;;;;;;;12.00;5.23;;;26.00;76.70;;;;;;5106278;28;20265;-67
2022/08/22 06:54:02;;;;;;;5.33;3.83;;;26.10;75.80;;;;;;5117559;27;20198;-68
2022/08/22 06:56:41;;;;;;;3.13;2.83;;;26.30;75.30;;;;;;5116716;27;20202;-68
2022/08/22 06:59:14;;;;;;;6.77;3.97;;;26.40;74.90;;;;;;5114920;27;20195;-67
2022/08/22 07:01:52;;;;;;;5.10;3.60;;;26.50;74.30;;;;;;5116048;27;20949;-67
2022/08/22 07:04:26;;;;;;;4.40;3.70;;;26.60;73.60;;;;;;5087971;28;20716;-68
2022/08/22 07:06:56;;;;;;;4.27;3.67;;;26.60;73.20;;;;;;5113913;27;20207;-68
2022/08/22 07:09:25;;;;;;;6.30;3.80;;;26.60;72.70;;;;;;5113935;27;20208;-67
2022/08/22 07:11:55;;;;;;;5.73;3.70;;;26.70;73.10;;;;;;5118320;27;20209;-67
2022/08/22 07:14:52;;;;;;;5.90;3.47;;;26.80;73.10;;;;;;5121213;27;20197;-67
2022/08/22 07:17:28;;;;;;;3.60;3.00;;;26.90;72.80;;;;;;5120641;27;20260;-68
2022/08/22 07:20:04;;;;;;;6.53;3.70;;;27.10;72.70;;;;;;5125465;27;20198;-68
2022/08/22 07:22:35;;;;;;;9.57;4.50;;;27.20;72.60;;;;;;5118703;27;20617;-68
2022/08/22 07:25:11;;;;;;;8.27;6.07;;;27.40;72.10;;;;;;5117921;27;20231;-68
2022/08/22 07:27:56;;;;;;;4.87;4.40;;;27.50;71.90;;;;;;5118917;27;20210;-68
2022/08/22 07:30:34;;;;;;;8.60;6.47;;;27.70;71.30;;;;;;5101719;27;20219;-67
2022/08/22 07:33:11;;;;;;;12.77;7.43;;;27.90;71.00;;;;;;5101673;27;20615;-68
2022/08/22 07:36:25;;;;;;;12.13;8.13;;;28.10;70.70;;;;;;5115597;27;20198;-68
2022/08/22 07:39:19;;;;;;;4.27;3.10;;;28.40;70.40;;;;;;5116021;27;20549;-68
2022/08/22 07:42:02;;;;;;;2.63;2.43;;;28.60;69.90;;;;;;5120678;27;20227;-68
2022/08/22 07:44:51;;;;;;;3.07;2.77;;;28.70;69.40;;;;;;5121018;27;20517;-68
2022/08/22 07:47:22;;;;;;;5.77;2.50;;;28.90;69.10;;;;;;5119819;27;20878;-68
2022/08/22 07:50:02;;;;;;;4.13;2.57;;;28.90;68.60;;;;;;5121147;27;20288;-68
2022/08/22 07:52:41;;;;;;;5.20;2.60;;;28.90;68.40;;;;;;5118892;27;20660;-68
2022/08/22 07:55:17;;;;;;;6.80;4.63;;;28.80;68.80;;;;;;5121973;27;20210;-68
2022/08/22 07:57:54;;;;;;;5.90;5.20;;;28.90;68.90;;;;;;5104990;27;20205;-68
2022/08/22 08:00:22;;;;;;;4.93;4.17;;;28.90;68.40;;;;;;5122004;27;20204;-68
2022/08/22 08:02:53;;;;;;;4.53;2.40;;;29.10;68.20;;;;;;5125072;27;20200;-68
2022/08/22 08:05:23;;;;;;;6.10;2.47;;;29.20;67.00;;;;;;5124114;27;20217;-68
2022/08/22 08:07:54;;;;;;;4.40;2.33;;;29.40;66.70;;;;;;5120721;27;20279;-68
2022/08/22 08:10:35;;;;;;;2.03;1.67;;;29.50;64.80;;;;;;5115767;27;20233;-68
2022/08/22 08:13:06;;;;;;;2.00;1.70;;;29.60;65.10;;;;;;5115806;27;20273;-68
2022/08/22 08:15:36;;;;;;;5.47;2.13;;;29.70;64.40;;;;;;5125790;27;20203;-68
2022/08/22 08:18:09;;;;;;;5.47;2.87;;;29.80;64.10;;;;;;5090410;27;20232;-68
2022/08/22 08:20:37;;;;;;;4.23;2.50;;;30.00;63.80;;;;;;5120286;27;20215;-68
2022/08/22 08:23:10;;;;;;;3.70;2.87;;;30.10;63.60;;;;;;5119064;27;20201;-68
2022/08/22 08:26:04;;;;;;;6.07;2.87;;;30.40;63.10;;;;;;5116393;27;20216;-68
2022/08/22 08:28:37;;;;;;;1.97;1.63;;;30.50;62.20;;;;;;5112333;27;20192;-68
2022/08/22 08:31:09;;;;;;;2.97;1.73;;;30.70;60.10;;;;;;5116755;27;20192;-68
2022/08/22 08:33:40;;;;;;;2.47;1.37;;;30.80;59.10;;;;;;5085348;28;20562;-68
2022/08/22 08:36:24;;;;;;;5.93;2.43;;;30.90;56.70;;;;;;5112301;27;20221;-68
2022/08/22 08:38:53;;;;;;;9.07;5.30;;;30.90;56.20;;;;;;5113715;27;20645;-69
2022/08/22 08:41:44;;;;;;;2.00;1.50;;;30.90;56.20;;;;;;5122140;27;20200;-68
2022/08/22 08:44:32;;;;;;;1.70;1.60;;;31.00;56.00;;;;;;5124458;27;20199;-68
2022/08/22 08:47:27;;;;;;;1.63;1.27;;;31.20;55.50;;;;;;5117411;27;20211;-68
2022/08/22 08:50:19;;;;;;;3.40;2.03;;;31.30;54.10;;;;;;5085243;28;20207;-68
2022/08/22 08:53:11;;;;;;;3.30;1.17;;;31.50;54.20;;;;;;5117016;27;20200;-68
2022/08/22 08:56:02;;;;;;;2.83;2.10;;;31.60;53.80;;;;;;5087888;27;20204;-68
2022/08/22 08:58:36;;;;;;;4.27;1.57;;;31.70;54.20;;;;;;5090931;27;20664;-68
2022/08/22 09:01:10;;;;;;;2.67;1.40;;;31.90;54.10;;;;;;5110940;27;20859;-68
2022/08/22 09:03:57;;;;;;;2.10;1.40;;;31.90;54.50;;;;;;5123003;27;20197;-68
2022/08/22 09:07:26;;;;;;;3.30;1.90;;;32.00;53.90;;;;;;5099523;27;20231;-68
2022/08/22 09:10:41;;;;;;;3.40;1.20;;;32.10;54.60;;;;;;5038338;28;20238;-68
2022/08/22 09:13:36;;;;;;;1.40;1.30;;;32.10;53.20;;;;;;5035861;28;20198;-68
2022/08/22 09:16:16;;;;;;;2.07;1.93;;;32.00;53.00;;;;;;5096650;27;20645;-68
2022/08/22 09:19:32;;;;;;;4.93;2.00;;;31.90;52.70;;;;;;5103723;27;20209;-68
2022/08/22 09:22:12;;;;;;;3.80;2.33;;;31.90;51.50;;;;;;5123073;27;20262;-68
2022/08/22 09:25:30;;;;;;;2.63;1.90;;;32.00;51.80;;;;;;5116017;27;20202;-68
2022/08/22 09:28:12;;;;;;;3.67;1.97;;;32.10;53.00;;;;;;5104146;27;20228;-68
2022/08/22 09:30:58;;;;;;;3.33;2.30;;;32.20;51.90;;;;;;5100190;27;20711;-69
2022/08/22 09:33:36;;;;;;;2.93;1.83;;;32.30;51.80;;;;;;5107396;27;20203;-68
2022/08/22 09:36:25;;;;;;;1.30;1.10;;;32.30;52.30;;;;;;5114287;27;20728;-68
2022/08/22 09:38:58;;;;;;;2.57;1.30;;;32.40;53.00;;;;;;5091958;28;20201;-68
2022/08/22 09:41:51;;;;;;;1.83;1.37;;;32.50;52.10;;;;;;5077241;28;20289;-68
2022/08/22 09:44:35;;;;;;;1.93;1.37;;;32.70;51.70;;;;;;5100771;27;20200;-68
2022/08/22 09:47:37;;;;;;;3.70;1.80;;;32.80;50.80;;;;;;5114460;27;20220;-68
2022/08/22 09:50:14;;;;;;;1.70;1.60;;;32.90;50.50;;;;;;5086841;27;20209;-69
2022/08/22 09:53:09;;;;;;;3.43;1.70;;;33.00;49.30;;;;;;5114662;27;20220;-69
2022/08/22 09:55:48;;;;;;;1.50;1.40;;;33.10;49.90;;;;;;5121731;27;20211;-69
2022/08/22 09:58:40;;;;;;;3.53;1.47;;;33.10;49.80;;;;;;5110494;27;20209;-68
2022/08/22 10:01:22;;;;;;;1.67;1.33;;;33.30;49.50;;;;;;5106254;27;20197;-68
2022/08/22 10:04:30;;;;;;;2.40;1.30;;;33.30;49.20;;;;;;5106097;27;20201;-68
2022/08/22 10:07:21;;;;;;;3.07;1.47;;;33.30;48.80;;;;;;5015987;28;20224;-68
2022/08/22 10:10:12;;;;;;;1.80;1.20;;;33.30;47.90;;;;;;5016209;28;20529;-68
2022/08/22 10:13:02;;;;;;;3.50;1.17;;;33.20;48.50;;;;;;5103703;27;20219;-69
2022/08/22 10:15:52;;;;;;;2.43;0.83;;;33.20;48.10;;;;;;5122427;27;20198;-69
2022/08/22 10:18:21;;;;;;;5.13;1.10;;;33.20;47.60;;;;;;5117918;27;20248;-69
2022/08/22 10:21:06;;;;;;;1.33;1.07;;;33.10;45.50;;;;;;5111047;27;20219;-69
2022/08/22 10:23:49;;;;;;;1.97;1.20;;;33.00;45.00;;;;;;5107471;27;20212;-68
2022/08/22 10:26:29;;;;;;;1.50;0.97;;;33.10;45.70;;;;;;5111753;28;20534;-68
2022/08/22 10:29:19;;;;;;;1.10;0.90;;;33.10;45.10;;;;;;5111532;27;20201;-69
2022/08/22 10:31:59;;;;;;;0.93;0.93;;;33.00;44.00;;;;;;5095408;28;20291;-68
2022/08/22 10:34:40;;;;;;;0.63;0.63;;;33.00;43.60;;;;;;5112041;28;20622;-68
2022/08/22 10:37:29;;;;;;;2.00;0.80;;;33.00;43.10;;;;;;5116681;28;20249;-68
2022/08/22 10:40:45;;;;;;;0.83;0.70;;;33.10;43.80;;;;;;5106077;28;20245;-68
2022/08/22 10:43:21;;;;;;;2.67;0.80;;;33.20;43.20;;;;;;5080903;28;20574;-68
2022/08/22 10:46:05;;;;;;;2.17;0.77;;;33.40;43.10;;;;;;5113659;28;20224;-68
2022/08/22 10:48:46;;;;;;;4.23;0.70;;;33.50;43.20;;;;;;5109831;28;20201;-68
2022/08/22 10:51:17;;;;;;;0.83;0.60;;;33.60;41.80;;;;;;5109510;28;20207;-68
2022/08/22 10:54:13;;;;;;;1.53;0.80;;;33.70;42.10;;;;;;5118258;28;20792;-68
2022/08/22 10:57:21;;;;;;;0.80;0.80;;;33.80;39.40;;;;;;5123206;28;20276;-68
2022/08/22 11:00:16;;;;;;;0.47;0.43;;;33.80;39.80;;;;;;5063233;28;20227;-68
2022/08/22 11:03:10;;;;;;;8.57;0.77;;;33.90;38.70;;;;;;5111070;28;20200;-68
2022/08/22 11:05:48;;;;;;;1.43;0.77;;;34.00;38.60;;;;;;5103757;28;20213;-68
2022/08/22 11:08:26;;;;;;;0.90;0.50;;;34.10;38.20;;;;;;5103004;28;20286;-68
2022/08/22 11:11:04;;;;;;;0.77;0.77;;;34.10;39.00;;;;;;5101946;28;20204;-68
2022/08/22 11:13:53;;;;;;;1.30;0.80;;;34.20;38.20;;;;;;5118821;28;20202;-68
2022/08/22 11:16:46;;;;;;;1.63;0.63;;;34.30;38.90;;;;;;5124089;28;20197;-68
2022/08/22 11:19:21;;;;;;;0.90;0.90;;;34.40;39.00;;;;;;5119494;28;20201;-68
2022/08/22 11:22:13;;;;;;;0.70;0.70;;;34.60;39.10;;;;;;5115243;28;20196;-68
2022/08/22 11:24:40;;;;;;;0.70;0.70;;;34.60;38.10;;;;;;5112042;28;20574;-68
2022/08/22 11:28:00;;;;;;;0.77;0.77;;;34.60;38.40;;;;;;5103285;28;20255;-68
2022/08/22 11:30:52;;;;;;;0.93;0.50;;;34.70;37.50;;;;;;5073585;28;20204;-68
2022/08/22 11:33:39;;;;;;;0.73;0.73;;;34.70;37.70;;;;;;5111028;28;20204;-68
2022/08/22 11:36:40;;;;;;;0.53;0.53;;;34.70;37.40;;;;;;5109362;28;20627;-68
2022/08/22 11:39:45;;;;;;;0.70;0.70;;;34.60;37.50;;;;;;5111716;27;20644;-68
2022/08/22 11:42:15;;;;;;;1.60;0.80;;;34.50;37.90;;;;;;5112075;27;20212;-68
2022/08/22 11:44:57;;;;;;;1.97;0.77;;;34.40;38.10;;;;;;5118854;27;20215;-68
2022/08/22 11:47:55;;;;;;;0.93;0.80;;;34.40;37.90;;;;;;5122987;27;20543;-68
2022/08/22 11:51:16;;;;;;;0.77;0.60;;;34.40;37.00;;;;;;5112820;27;20204;-68
2022/08/22 11:54:18;;;;;;;1.07;0.70;;;34.40;37.40;;;;;;5012226;28;20286;-68
2022/08/22 11:56:57;;;;;;;0.70;0.70;;;34.40;37.00;;;;;;5112651;27;20211;-68
2022/08/22 11:59:41;;;;;;;1.03;0.53;;;34.30;35.70;;;;;;5123767;27;20211;-68
2022/08/22 12:02:43;;;;;;;0.50;0.50;;;34.20;35.80;;;;;;5118912;27;20232;-68
2022/08/22 12:05:22;;;;;;;2.43;0.57;;;34.20;36.70;;;;;;5120989;27;20206;-68
2022/08/22 12:08:10;;;;;;;1.00;0.60;;;34.30;36.30;;;;;;5122256;27;20217;-68
2022/08/22 12:10:51;;;;;;;0.63;0.53;;;34.40;35.80;;;;;;5125743;27;20214;-69
2022/08/22 12:13:55;;;;;;;0.60;0.60;;;34.50;36.20;;;;;;5115633;27;20200;-68
2022/08/22 12:16:38;;;;;;;2.37;0.57;;;34.60;36.90;;;;;;5113655;27;20214;-68
2022/08/22 12:19:22;;;;;;;0.50;0.50;;;34.60;36.40;;;;;;5119945;27;20577;-68
2022/08/22 12:22:03;;;;;;;0.60;0.60;;;34.40;36.20;;;;;;5115580;27;20287;-68
2022/08/22 12:25:05;;;;;;;1.53;0.77;;;34.20;36.70;;;;;;5110204;27;20247;-69
2022/08/22 12:27:51;;;;;;;2.37;0.70;;;34.00;36.00;;;;;;5082105;27;20298;-69
2022/08/22 12:30:51;;;;;;;1.53;0.80;;;33.70;37.00;;;;;;5113416;27;20227;-69
2022/08/22 12:33:38;;;;;;;1.37;0.83;;;33.50;37.40;;;;;;5075403;27;20718;-68
2022/08/22 12:36:41;;;;;;;0.60;0.60;;;33.50;36.20;;;;;;5102715;28;20668;-68
2022/08/22 12:39:28;;;;;;;0.70;0.70;;;33.40;37.00;;;;;;5084683;27;20207;-69
2022/08/22 12:42:19;;;;;;;0.97;0.70;;;33.40;37.60;;;;;;5104086;27;20225;-68
2022/08/22 12:45:11;;;;;;;0.57;0.57;;;33.50;37.10;;;;;;5116815;27;20226;-68
2022/08/22 12:48:05;;;;;;;0.60;0.60;;;33.50;37.40;;;;;;5118735;27;20225;-68
2022/08/22 12:50:56;;;;;;;0.60;0.60;;;33.60;37.90;;;;;;5125101;27;20201;-68
2022/08/22 12:53:49;;;;;;;0.73;0.60;;;33.60;38.00;;;;;;5122433;27;20189;-68
2022/08/22 12:56:31;;;;;;;0.60;0.60;;;33.60;37.80;;;;;;5112071;27;20266;-68
2022/08/22 12:59:11;;;;;;;1.60;0.90;;;33.60;37.50;;;;;;5107023;27;20211;-68
2022/08/22 13:01:46;;;;;;;0.80;0.80;;;33.60;36.70;;;;;;5103977;27;20204;-68
2022/08/22 13:04:18;;;;;;;0.70;0.70;;;33.50;36.20;;;;;;5120637;27;20200;-68
2022/08/22 13:07:08;;;;;;;1.53;0.90;;;33.50;37.00;;;;;;5115523;27;20320;-68
2022/08/22 13:09:39;;;;;;;1.90;1.00;;;33.50;36.30;;;;;;5077789;27;20246;-68
2022/08/22 13:12:19;;;;;;;0.80;0.77;;;33.50;36.90;;;;;;5119650;27;20199;-68
2022/08/22 13:14:52;;;;;;;1.00;0.80;;;33.50;36.70;;;;;;5122108;27;20228;-68
2022/08/22 13:17:21;;;;;;;0.50;0.50;;;33.60;36.80;;;;;;5115651;27;20259;-68
2022/08/22 13:19:53;;;;;;;1.00;0.70;;;33.60;36.10;;;;;;5107098;27;20204;-68
2022/08/22 13:22:26;;;;;;;0.87;0.70;;;33.70;36.60;;;;;;5123573;27;20200;-69
2022/08/22 13:25:21;;;;;;;1.07;0.60;;;33.80;35.80;;;;;;5112204;27;20200;-68
2022/08/22 13:27:58;;;;;;;0.70;0.70;;;33.80;34.80;;;;;;5100224;28;20592;-68
2022/08/22 13:30:28;;;;;;;0.70;0.70;;;33.70;36.50;;;;;;5114574;27;20192;-68
2022/08/22 13:33:08;;;;;;;6.53;0.70;;;33.70;36.70;;;;;;5108981;27;20222;-68
2022/08/22 13:35:49;;;;;;;0.83;0.77;;;33.70;36.50;;;;;;5120808;27;20193;-68
2022/08/22 13:38:24;;;;;;;2.13;0.70;;;33.80;35.30;;;;;;5123864;27;20200;-68
2022/08/22 13:40:55;;;;;;;1.67;0.90;;;33.80;36.10;;;;;;5121348;27;20551;-68
2022/08/22 13:43:33;;;;;;;5.73;0.90;;;33.80;36.70;;;;;;5118541;27;20197;-68
2022/08/22 13:46:07;;;;;;;0.80;0.80;;;33.70;35.70;;;;;;5109503;27;20196;-68
2022/08/22 13:48:45;;;;;;;2.03;0.70;;;33.70;35.60;;;;;;5099599;27;20232;-68
2022/08/22 13:51:25;;;;;;;0.70;0.70;;;33.60;35.80;;;;;;5117436;27;20207;-68
2022/08/22 13:54:23;;;;;;;0.83;0.73;;;33.60;36.00;;;;;;5119584;27;20201;-68
2022/08/22 13:57:09;;;;;;;4.77;1.10;;;33.60;36.80;;;;;;5116811;27;20712;-68
2022/08/22 14:00:12;;;;;;;1.73;0.63;;;33.50;36.10;;;;;;5084844;27;20203;-68
2022/08/22 14:03:18;;;;;;;1.13;0.80;;;33.50;36.60;;;;;;5101824;27;20262;-68
2022/08/22 14:05:56;;;;;;;1.23;0.90;;;33.50;36.50;;;;;;5100810;27;20209;-68
2022/08/22 14:08:44;;;;;;;0.93;0.70;;;33.50;36.70;;;;;;5107357;27;20213;-68
2022/08/22 14:11:36;;;;;;;7.90;1.00;;;33.60;37.00;;;;;;5107887;27;20207;-68
2022/08/22 14:14:06;;;;;;;1.83;1.00;;;33.60;36.80;;;;;;5115171;27;20206;-68
2022/08/22 14:16:46;;;;;;;0.80;0.77;;;33.70;37.00;;;;;;5105169;27;20199;-68
2022/08/22 14:19:24;;;;;;;0.70;0.60;;;33.70;36.70;;;;;;5116246;27;20197;-68
2022/08/22 14:21:58;;;;;;;0.97;0.87;;;33.70;36.80;;;;;;5113134;27;20205;-68